Portada
METAR-TAF:

METAR-TAF

Aeropuertos :

Souillac

Brive-la-Gaillarde, Francia

latitud: 45-02-28N, longitud: 001-28-59E, altitud: 311 m

Observación

El informe se hizo hace 12 minutos, a las 09:00 UTC
Viento 11 kt del este-sureste
Temperatura 16°C
Humedad 88%
Presión 1007 hPa
Visibilidad 10 km o más
Escasas nubes a una altura de 1600 ft
Cielo cubierto a una altura de 8800 ft

METAR: LFSL 150900Z AUTO 11011KT 9999 FEW016 OVC088 16/14 Q1007 TEMPO 4000 -RA

Hora: 11:12 (09:12 UTC)

Pronóstico

El informe se hizo hace 1 hora y 12 minutos, a las 08:00 UTC
Pronóstico válido del 15 a las 09 UTC al 15 a las 18 UTC
Viento 10 kt del este-sureste
Visibilidad 10 km o más
Cielo nuboso a una altura de 4500 ft
Temporalmente
del 15 a las 09 UTC al 15 a las 18 UTC
Visibilidad: 4000 m
Cielo nuboso a una altura de 3000 ft
lluvia ligera

TAF: LFSL 150800Z 1509/1518 12010KT 9999 BKN045 TEMPO 1509/1518 4000 -RA BKN030

Observaciones y pronósticos meteorológicos de más de 4000 aeropuertos (mensajes METAR y TAF).

Los puntos amarillos y rojos representan las estaciones disponibles.

Ponga el ratón en el punto deseado para ver el nombre de la estación.

Haga clic para ver las observaciones y los pronósticos meteorológicos.

Para cambiar el mapa : haga clic en los botones verdes con una cruz de color negro para hacer un zoom, en el botón verde con un guión para alejar o en las flechas verdes para mapas adyacentes.


METAR-TAF: